Tiempo atmosférico en la estación meteorológica de Navalvillar De Ibor, Cáceres (923 m.)



Fecha
DESCASC
Temp. máxima en grados centígrados (hora)
DESCASC
Temp. mínima en grados centígrados (hora)
DESCASC
Temp. media en grados centígrados
DESCASC
Racha de viento máxima en m/sg (hora)
DESCASC
Velocidad máxima media en intervalos de 10 minutos(hora)
DESCASC
Precipitaciones diarias en mm
DESCASC
Precipitaciones de 00:00 a 06:00 en mm
DESCASC
Precipitaciones de 06:00 a 12:00 en mm
DESCASC
Precipitaciones de 12:00 a 18:00 en mm
DESCASC
Precipitaciones de 18:00 a 24:00 en mm
DESCASC
28-02-2021 13.6 (15:10) 5 (08:20) 9.3 6.67 (23:59) 3.89 (23:59) 0 0 0 0 0
27-02-2021 16.3 (16:00) 8.5 (08:20) 12.4 10 (03:10) 3.06 (03:40) 0 0 0 0 0
26-02-2021 14.7 (16:20) 6.7 (08:20) 10.7 6.39 (15:30) 3.33 (14:30) 0 0 0 0 0
25-02-2021 11.4 (15:50) 7.5 (00:00) 9.4 9.44 (09:40) 5.83 (09:30) 0 0 0 0 0
24-02-2021 15.8 (15:10) 4.9 (00:00) 10.4 7.22 (09:50) 4.17 (10:00) 0 0 0 0 0
23-02-2021 13.1 (15:50) 1.8 (00:00) 7.5 5.83 (13:20) 2.22 (16:30) 0 0 0 0 0
22-02-2021 10.1 (16:50) 1.1 (00:00) 5.6 8.89 (00:40) 3.89 (00:50) 0 0 0 0 0
21-02-2021 11.2 (04:40) 3.5 (00:00) 7.3 11.67 (23:00) 4.72 (05:00) 14.8 0 1.6 13 0.2
20-02-2021 13.8 (14:50) 7.5 (00:00) 10.7 10.83 (17:30) 3.89 (16:40) 0 0 0 0 0
19-02-2021 16.1 (14:20) 6.7 (00:00) 11.4 11.11 (15:30) 4.72 (15:30) 0 0 0 0 0
18-02-2021 14.6 (16:10) 6.6 (00:00) 10.6 9.44 (18:20) 3.89 (15:20) 0 0 0 0 0
17-02-2021 17.4 (16:10) 6 (00:00) 11.7 6.94 (15:40) 2.78 (15:20) 0 0 0 0 0
16-02-2021 15.7 (16:40) 6.8 (00:00) 11.3 10 (02:30) 6.67 (03:50) 0 0 0 0 0
15-02-2021 15.2 (15:50) 5.5 (00:00) 10.3 9.72 (22:50) 5.83 (22:50) 0 0 0 0 0
14-02-2021 16 (16:10) 5.5 (00:00) 10.8 7.5 (22:50) 3.89 (22:50) 0 0 0 0 0
13-02-2021 14.3 (16:50) 3.9 (00:00) 9.1 6.39 (13:30) 2.78 (13:30) 0 0 0 0 0
12-02-2021 11.6 (16:20) 5.7 (00:00) 8.7 15 (03:10) 5.28 (04:20) 8.2 8 0.2 0 0
11-02-2021 11.6 (14:30) 9.1 (00:00) 10.4 7.78 (17:10) 3.33 (04:00) 1.6 0.6 0.2 0.4 0.4
10-02-2021 10.6 (15:10) 5.6 (00:00) 8.1 25.28 (04:10) 9.17 (03:20) 7.2 7.2 0 0 0
09-02-2021 7.8 (13:20) 5.5 (00:00) 6.7 23.61 (11:40) 8.06 (13:50) 44.8 0.6 10 28.8 5.4
08-02-2021 7.5 (03:40) 4.6 (00:00) 6 20.56 (04:00) 7.5 (04:10) 33.6 27 5.4 1.2 0
07-02-2021 7.4 (13:50) 3.3 (00:00) 5.4 12.5 (23:50) 4.72 (23:30) 1.8 0 0 0.4 1.4
06-02-2021 7.8 (14:10) 4.9 (00:00) 6.4 6.67 (02:30) 2.5 (01:20) 10.6 7.4 1.2 1.6 0.4
05-02-2021 11.6 (13:40) 6.6 (00:00) 9.1 6.67 (18:50) 2.78 (18:50) 13.4 0.8 0 0.4 12.2
04-02-2021 9 (16:10) 6.9 (00:00) 8 6.11 (09:00) 3.33 (22:30) 5.6 0.6 3.6 0.6 0.8
03-02-2021 11.5 (17:00) 7.4 (00:00) 9.5 12.78 (01:30) 3.61 (20:30) 5 0 1 0.2 3.8
02-02-2021 10.9 (15:10) 6.4 (00:00) 8.6 8.89 (09:50) 3.89 (08:30) 0.4 0.2 0.2 0 0
01-02-2021 9.8 (16:20) 5.5 (00:00) 7.7 11.39 (15:30) 5.28 (14:20) 0 0 0 0 0

Gráficas

Temp. máximas Temp. mínimas Temp. medias Precipitaciones Rachas de viento máximas Velocidades máximas media en intervalos de 10 minutos

Datos horarios

Fecha y hora oficial Temperatura (ºC) Velocidad del viento (km/h) Dirección del viento Racha (km/h) Dirección de racha Precipitación (mm) Presión (hPa) Tendencia (hPa) Humedad (%)
2021-03-02 23:00:00 9 6 Sur 13 Sudoeste 0 -- -- 78
2021-03-02 22:00:00 9.6 11 Sur 19 Sudeste 0 -- -- 76
2021-03-02 21:00:00 9.4 9 Sudeste 19 Sur 0 -- -- 79
2021-03-02 20:00:00 9.7 8 Sudeste 17 Sudeste 0 -- -- 79
2021-03-02 19:00:00 10.3 5 Sur 17 Nordeste 0 -- -- 77
2021-03-02 18:00:00 11.4 5 Nordeste 20 Nordeste 0 -- -- 74
2021-03-02 17:00:00 11.8 7 Norte 21 Nordeste 0 -- -- 75
2021-03-02 16:00:00 11.7 7 Norte 18 Norte 0 -- -- 78
2021-03-02 15:00:00 11 5 Nordeste 15 Nordeste 0 -- -- 80
2021-03-02 14:00:00 11 5 Nordeste 17 Nordeste 0 -- -- 80
2021-03-02 13:00:00 11.4 5 Nordeste 14 Nordeste 0 -- -- 77
2021-03-02 12:00:00 11.1 5 Noroeste 9 Noroeste 0 -- -- 80
2021-03-02 11:00:00 9.4 7 Noroeste 12 Noroeste 0 -- -- 87
2021-03-02 10:00:00 8.1 0 Calma 8 Noroeste 0 -- -- 90
2021-03-02 09:00:00 7.3 3 Sudoeste 6 Sudoeste 0 -- -- 92
2021-03-02 08:00:00 6.5 0 Calma 7 Noroeste 0 -- -- 93
2021-03-02 07:00:00 6 2 Sudoeste 9 Noroeste 0 -- -- 93
2021-03-02 06:00:00 7.4 4 Sudeste 15 Sudeste 0 -- -- 89
2021-03-02 05:00:00 6.9 2 Sudeste 6 Este 0 -- -- 91
2021-03-02 04:00:00 6.9 0 Calma 8 Oeste 0 -- -- 92
2021-03-02 03:00:00 5.9 3 Sur 8 Oeste 0 -- -- 94
2021-03-02 02:00:00 6.1 0 Calma 9 Sudoeste 0 -- -- 92
2021-03-02 01:00:00 6.5 0 Calma 11 Sudoeste 0 -- -- 90
2021-03-02 00:00:00 7.1 3 Sudoeste 13 Sudeste 0 -- -- 87
2021-03-01 23:00:00 9 6 Sur 18 Sur 0 -- -- 82
2021-03-01 22:00:00 8.6 4 Sudeste 9 Sudeste 0 -- -- 85
2021-03-01 21:00:00 8.1 2 Sur 10 Este 0 -- -- 87
2021-03-01 20:00:00 8 8 Sudeste 15 Sudeste 0 -- -- 88
2021-03-01 19:00:00 8.5 4 Sudeste 14 Nordeste 0 -- -- 88
2021-03-01 18:00:00 9.3 5 Nordeste 13 Este 0 -- -- 84
2021-03-01 17:00:00 9.6 5 Norte 16 Nordeste 0 -- -- 81
2021-03-01 16:00:00 10.2 5 Nordeste 13 Sudeste 0 -- -- 76
2021-03-01 15:00:00 10.6 7 Este 15 Nordeste 0 -- -- 71
2021-03-01 14:00:00 9.8 5 Nordeste 23 Nordeste 0 -- -- 77
2021-03-01 13:00:00 9.3 7 Este 18 Este 0 -- -- 78
2021-03-01 12:00:00 9 5 Sudeste 13 Este 0 -- -- 78
2021-03-01 11:00:00 7.9 5 Este 14 Este 0 -- -- 79
2021-03-01 10:00:00 7 5 Sudeste 15 Nordeste 0 -- -- 82
2021-03-01 09:00:00 6.1 6 Sudeste 14 Este 0 -- -- 86
2021-03-01 08:00:00 5.6 6 Sudeste 16 Sudeste 0 -- -- 86
2021-03-01 07:00:00 5.2 4 Sudoeste 14 Sudeste 0 -- -- 89
2021-03-01 06:00:00 6.4 6 Sudeste 19 Sudeste 0 -- -- 84
2021-03-01 05:00:00 7.2 5 Norte 28 Sudeste 0 -- -- 78
2021-03-01 04:00:00 7.8 13 Sudeste 32 Sudeste 0 -- -- 75
2021-03-01 03:00:00 8.4 16 Sur 31 Sur 0 -- -- 72
2021-03-01 02:00:00 8.6 17 Sur 40 Sur 0 -- -- 72
2021-03-01 01:00:00 8.4 24 Sur 36 Sur 0 -- -- 74
2021-03-01 00:00:00 8.9 14 Sur 24 Sur 0 -- -- 76
2021-02-28 23:00:00 8.1 5 Sur 8 Sur 0 -- -- 79
2021-02-28 22:00:00 8.2 5 Sudeste 10 Sudeste 0 -- -- 79
2021-02-28 21:00:00 8.9 5 Sudeste 11 Sur 0 -- -- 77
2021-02-28 20:00:00 9.2 5 Sur 12 Este 0 -- -- 77
2021-02-28 19:00:00 10.1 5 Sudeste 12 Este 0 -- -- 74
2021-02-28 18:00:00 10.9 4 Este 13 Nordeste 0 -- -- 71
2021-02-28 17:00:00 11.6 7 Norte 22 Norte 0 -- -- 69
2021-02-28 16:00:00 13.4 9 Norte 18 Norte 0 -- -- 64
2021-02-28 15:00:00 13.4 8 Norte 17 Norte 0 -- -- 63
2021-02-28 14:00:00 13.2 10 Norte 17 Nordeste 0 -- -- 64
2021-02-28 13:00:00 12.4 8 Noroeste 17 Noroeste 0 -- -- 62
2021-02-28 12:00:00 11.6 7 Oeste 14 Oeste 0 -- -- 60
2021-02-28 11:00:00 11.2 6 Noroeste 10 Noroeste 0 -- -- 58
2021-02-28 10:00:00 8.8 5 Noroeste 9 Noroeste 0 -- -- 62
2021-02-28 09:00:00 5.2 3 Sudeste 8 Sudoeste 0 -- -- 72
2021-02-28 08:00:00 5.2 5 Sudoeste 8 Sur 0 -- -- 66
2021-02-28 07:00:00 5.7 5 Sur 8 Sur 0 -- -- 65
2021-02-28 06:00:00 6.8 4 Sudoeste 12 Sur 0 -- -- 61
2021-02-28 05:00:00 7.6 7 Sur 12 Sur 0 -- -- 58
2021-02-28 04:00:00 7.1 5 Sur 7 Sur 0 -- -- 61
2021-02-28 03:00:00 8.6 0 Calma 9 Sudeste 0 -- -- 56
2021-02-28 02:00:00 10.1 3 Sur 10 Sur 0 -- -- 46
2021-02-28 01:00:00 10.3 6 Sur 11 Sur 0 -- -- 47
2021-02-28 00:00:00 12 5 Sur 15 Sudeste 0 -- -- 35
2021-02-27 23:00:00 10.8 6 Sudeste 13 Sudeste 0 -- -- 35
2021-02-27 22:00:00 12.2 5 Sudeste 13 Sudeste 0 -- -- 29
2021-02-27 21:00:00 12.3 5 Sur 16 Sur 0 -- -- 32
2021-02-27 20:00:00 12.7 5 Sur 18 Este 0 -- -- 33
2021-02-27 19:00:00 12.9 6 Sur 20 Sudeste 0 -- -- 33
2021-02-27 18:00:00 14.2 8 Nordeste 23 Nordeste 0 -- -- 39
2021-02-27 17:00:00 15.7 8 Nordeste 22 Este 0 -- -- 40
2021-02-27 16:00:00 16.3 7 Nordeste 22 Nordeste 0 -- -- 39
2021-02-27 15:00:00 15.5 9 Este 23 Este 0 -- -- 37
2021-02-27 14:00:00 15.5 7 Nordeste 29 Nordeste 0 -- -- 39
2021-02-27 13:00:00 15.1 9 Nordeste 23 Este 0 -- -- 38
2021-02-27 12:00:00 13.6 7 Sudoeste 31 Este 0 -- -- 33
2021-02-27 11:00:00 12.6 10 Nordeste 22 Nordeste 0 -- -- 35
2021-02-27 10:00:00 12 7 Nordeste 19 Nordeste 0 -- -- 27
2021-02-27 09:00:00 9.1 4 Sur 10 Sudeste 0 -- -- 31
2021-02-27 08:00:00 8.7 5 Sur 13 Sudeste 0 -- -- 37
2021-02-27 07:00:00 9 5 Sur 20 Este 0 -- -- 34
2021-02-27 06:00:00 10.4 8 Norte 22 Este 0 -- -- 35
2021-02-27 05:00:00 10.7 8 Este 25 Sur 0 -- -- 49
2021-02-27 04:00:00 10.7 9 Sudeste 36 Nordeste 0 -- -- 47
2021-02-27 03:00:00 10.6 9 Sudeste 24 Este 0 -- -- 45
2021-02-27 02:00:00 10 6 Sur 18 Sudeste 0 -- -- 55
2021-02-27 01:00:00 10.1 8 Sur 16 Sudeste 0 -- -- 58
2021-02-27 00:00:00 10.6 9 Sudeste 18 Este 0 -- -- 64
2021-02-26 23:00:00 10.2 8 Sur 17 Sur 0 -- -- 73
2021-02-26 22:00:00 9.9 6 Sudeste 13 Sur 0 -- -- 75
2021-02-26 21:00:00 9.6 4 Sur 12 Sur 0 -- -- 82
2021-02-26 20:00:00 10.4 8 Sur 19 Sudeste 0 -- -- 80
2021-02-26 19:00:00 10.9 8 Este 16 Sudeste 0 -- -- 80
2021-02-26 18:00:00 12.1 6 Este 17 Sudeste 0 -- -- 75
2021-02-26 17:00:00 13.9 6 Nordeste 18 Nordeste 0 -- -- 69
2021-02-26 16:00:00 14.5 6 Nordeste 23 Norte 0 -- -- 67
2021-02-26 15:00:00 13.5 10 Norte 21 Norte 0 -- -- 69
2021-02-26 14:00:00 12.7 6 Norte 21 Norte 0 -- -- 74
2021-02-26 13:00:00 11.7 7 Norte 14 Norte 0 -- -- 77
2021-02-26 12:00:00 10.9 5 Norte 10 Norte 0 -- -- 86
2021-02-26 11:00:00 9.3 3 Norte 6 Norte 0 -- -- 88
2021-02-26 10:00:00 8.3 0 Calma 5 Sudeste 0 -- -- 91
2021-02-26 09:00:00 7 0 Calma 6 Sudeste 0 -- -- 93
2021-02-26 08:00:00 7 3 Este 10 Nordeste 0 -- -- 91
2021-02-26 07:00:00 6.8 2 Oeste 6 Oeste 0 -- -- 91
2021-02-26 06:00:00 7.1 3 Oeste 16 Norte 0 -- -- 90
2021-02-26 05:00:00 8.8 9 Sudeste 18 Sudeste 0 -- -- 81
2021-02-26 04:00:00 7.3 2 Noroeste 8 Noroeste 0 -- -- 88
2021-02-26 03:00:00 8.3 4 Sudoeste 21 Este 0 -- -- 82
2021-02-26 02:00:00 9.7 6 Este 18 Sudeste 0 -- -- 77
2021-02-26 01:00:00 9.6 6 Sur 14 Sudeste 0 -- -- 78
2021-02-26 00:00:00 9.8 4 Sur 13 Sudeste 0 -- -- 76
2021-02-25 23:00:00 10 10 Sudeste 19 Sudeste 0 -- -- 74
2021-02-25 22:00:00 9.1 9 Sudeste 19 Sudeste 0 -- -- 82
2021-02-25 21:00:00 9.1 10 Sur 19 Sudeste 0 -- -- 82
2021-02-25 20:00:00 8.9 10 Sur 21 Sur 0 -- -- 81
2021-02-25 19:00:00 9 8 Sudeste 17 Sudeste 0 -- -- 80
2021-02-25 18:00:00 9.6 6 Nordeste 16 Nordeste 0 -- -- 81
2021-02-25 17:00:00 10.7 5 Nordeste 13 Norte 0 -- -- 75
2021-02-25 16:00:00 11.4 6 Norte 13 Norte 0 -- -- 75
2021-02-25 15:00:00 11.1 7 Noroeste 10 Noroeste 0 -- -- 77
2021-02-25 14:00:00 10.5 4 Noroeste 8 Noroeste 0 -- -- 75
2021-02-25 13:00:00 9.3 0 Calma 9 Noroeste 0 -- -- 78
2021-02-25 12:00:00 9.7 4 Noroeste 23 Sudeste 0 -- -- 76
2021-02-25 11:00:00 9.2 11 Sudeste 30 Sudeste 0 -- -- 76
2021-02-25 10:00:00 8.5 20 Sudeste 34 Sudeste 0 -- -- 77
2021-02-25 09:00:00 8.3 15 Sudeste 27 Sudeste 0 -- -- 78
2021-02-25 08:00:00 7.8 9 Sudeste 22 Sudeste 0 -- -- 79
2021-02-25 07:00:00 7.8 8 Este 18 Nordeste 0 -- -- 80
2021-02-25 06:00:00 7.8 5 Sudeste 17 Este 0 -- -- 77
2021-02-25 05:00:00 9.1 9 Sudeste 25 Sudeste 0 -- -- 71
2021-02-25 04:00:00 8.8 17 Sur 24 Sur 0 -- -- 69
2021-02-25 03:00:00 9.1 12 Sur 17 Sur 0 -- -- 75
2021-02-25 02:00:00 8.2 6 Sur 10 Sur 0 -- -- 81
2021-02-25 01:00:00 8 5 Sur 10 Sudeste 0 -- -- 81
2021-02-25 00:00:00 8 4 Sudeste 9 Sudeste 0 -- -- 80
2021-02-24 23:00:00 8.2 5 Sudeste 9 Este 0 -- -- 80
2021-02-24 22:00:00 8.6 5 Sur 8 Sudeste 0 -- -- 78
2021-02-24 21:00:00 9 5 Sudeste 8 Sudeste 0 -- -- 76
2021-02-24 20:00:00 9.6 5 Sudeste 10 Sudeste 0 -- -- 75
2021-02-24 19:00:00 12.6 3 Sudeste 15 Este 0 -- -- 61
2021-02-24 18:00:00 13.9 8 Este 19 Este 0 -- -- 55
2021-02-24 17:00:00 15.2 7 Este 26 Este 0 -- -- 51
2021-02-24 16:00:00 15.7 6 Nordeste 23 Este 0 -- -- 49
2021-02-24 15:00:00 15.7 9 Este 24 Sudeste 0 -- -- 45
2021-02-24 14:00:00 14.7 9 Este 24 Este 0 -- -- 47
2021-02-24 13:00:00 13.6 7 Nordeste 21 Nordeste 0 -- -- 57
2021-02-24 12:00:00 12.3 7 Este 24 Este 0 -- -- 62
2021-02-24 11:00:00 11.3 9 Sudeste 24 Sudeste 0 -- -- 64
2021-02-24 10:00:00 9.1 15 Sudeste 26 Sudeste 0 -- -- 69
2021-02-24 09:00:00 5.8 2 Noroeste 12 Sudeste 0 -- -- 81
2021-02-24 08:00:00 7.5 10 Sudeste 26 Sudeste 0 -- -- 73
2021-02-24 07:00:00 7.4 14 Sur 24 Sudeste 0 -- -- 74
2021-02-24 06:00:00 4.9 3 Este 10 Sudeste 0 -- -- 82
2021-02-24 05:00:00 7.2 4 Sudeste 19 Sur 0 -- -- 72
2021-02-24 04:00:00 7.5 5 Sudeste 19 Sudeste 0 -- -- 71
2021-02-24 03:00:00 8 8 Sur 21 Sur 0 -- -- 70
2021-02-24 02:00:00 7.6 9 Sudeste 20 Sudeste 0 -- -- 71
2021-02-24 01:00:00 5.3 4 Oeste 11 Sudeste 0 -- -- 83
2021-02-24 00:00:00 5.8 3 Sudoeste 9 Sudeste 0 -- -- 81
2021-02-23 23:00:00 6.6 3 Sur 8 Norte 0 -- -- 77
2021-02-23 22:00:00 7 4 Sur 13 Sudeste 0 -- -- 76
2021-02-23 21:00:00 6.9 5 Sur 9 Sudoeste 0 -- -- 78
2021-02-23 20:00:00 8.3 5 Sur 13 Sudeste 0 -- -- 76
2021-02-23 19:00:00 9.1 4 Sudeste 11 Sudeste 0 -- -- 71
2021-02-23 18:00:00 11 4 Sur 14 Este 0 -- -- 64
2021-02-23 17:00:00 12.7 6 Nordeste 19 Norte 0 -- -- 58
2021-02-23 16:00:00 12.8 8 Nordeste 20 Este 0 -- -- 49
2021-02-23 15:00:00 12.4 8 Este 19 Nordeste 0 -- -- 47
2021-02-23 14:00:00 12.2 7 Este 21 Nordeste 0 -- -- 46
2021-02-23 13:00:00 11.4 5 Este 19 Este 0 -- -- 50
2021-02-23 12:00:00 10.6 6 Este 15 Nordeste 0 -- -- 53
2021-02-23 11:00:00 9.3 6 Norte 14 Este 0 -- -- 57
2021-02-23 10:00:00 5.3 3 Noroeste 8 Este 0 -- -- 73
2021-02-23 09:00:00 2.7 5 Sur 10 Sudeste 0 -- -- 83
2021-02-23 08:00:00 2.3 6 Sur 9 Sudeste 0 -- -- 84
2021-02-23 07:00:00 2.5 5 Sur 10 Sur 0 -- -- 85
2021-02-23 06:00:00 2.3 6 Sudeste 10 Sudeste 0 -- -- 86
2021-02-23 05:00:00 3 6 Sur 10 Sudeste 0 -- -- 80
2021-02-23 04:00:00 2.1 6 Sur 9 Sudeste 0 -- -- 91
2021-02-23 03:00:00 2.3 4 Sur 7 Sur 0 -- -- 92
2021-02-23 02:00:00 2.5 4 Sur 11 Sudoeste 0 -- -- 92
2021-02-23 01:00:00 2.6 6 Sur 9 Sudoeste 0 -- -- 91
2021-02-23 00:00:00 2.9 6 Sur 9 Sudoeste 0 -- -- 90
2021-02-22 23:00:00 3.6 7 Sudoeste 11 Sudoeste 0 -- -- 85
2021-02-22 22:00:00 3.7 6 Sudoeste 12 Sudoeste 0 -- -- 83
2021-02-22 21:00:00 3.7 6 Sudoeste 14 Sudoeste 0 -- -- 81
2021-02-22 20:00:00 4.7 5 Sudoeste 15 Oeste 0 -- -- 74
2021-02-22 19:00:00 5.9 5 Sudoeste 15 Oeste 0 -- -- 64
2021-02-22 18:00:00 7.9 4 Oeste 19 Oeste 0 -- -- 51
2021-02-22 17:00:00 9.9 8 Oeste 23 Oeste 0 -- -- 51
2021-02-22 16:00:00 9.8 9 Oeste 24 Noroeste 0 -- -- 52
2021-02-22 15:00:00 9 8 Oeste 22 Oeste 0 -- -- 54
2021-02-22 14:00:00 8.3 9 Noroeste 21 Noroeste 0 -- -- 64
2021-02-22 13:00:00 7.4 9 Noroeste 21 Noroeste 0 -- -- 66
2021-02-22 12:00:00 6.2 8 Noroeste 17 Oeste 0 -- -- 67
2021-02-22 11:00:00 5 7 Oeste 20 Oeste 0 -- -- 73
2021-02-22 10:00:00 3 8 Oeste 22 Oeste 0 -- -- 81
2021-02-22 09:00:00 1.2 9 Sudoeste 19 Oeste 0 -- -- 89
2021-02-22 08:00:00 1.2 9 Sudoeste 22 Oeste 0 -- -- 90
2021-02-22 07:00:00 1.4 13 Sudoeste 24 Oeste 0 -- -- 90
2021-02-22 06:00:00 1.4 10 Sudoeste 28 Sudoeste 0 -- -- 92
2021-02-22 05:00:00 1.7 12 Sudoeste 27 Oeste 0 -- -- 93
2021-02-22 04:00:00 2.1 11 Sudoeste 26 Noroeste 0 -- -- 94
2021-02-22 03:00:00 2.8 10 Oeste 23 Noroeste 0 -- -- 93
2021-02-22 02:00:00 3.3 10 Oeste 30 Noroeste 0 -- -- 93
2021-02-22 01:00:00 3.4 11 Oeste 32 Oeste 0 -- -- 94
2021-02-22 00:00:00 3.5 10 Oeste 42 Noroeste 0 -- -- 96
2021-02-21 23:00:00 4.1 15 Oeste 42 Oeste 0 -- -- 96
2021-02-21 22:00:00 4 12 Oeste 27 Sudoeste 0 -- -- 95
2021-02-21 21:00:00 4.2 11 Oeste 34 Noroeste 0 -- -- 94
2021-02-21 20:00:00 4.1 13 Oeste 35 Sudoeste 0 -- -- 96
2021-02-21 19:00:00 3.9 12 Oeste 28 Oeste 0.2 -- -- 96
2021-02-21 18:00:00 3.9 9 Oeste 26 Oeste 0.6 -- -- 98
2021-02-21 17:00:00 4.7 9 Oeste 22 Sudoeste 1.6 -- -- 97
2021-02-21 16:00:00 5.5 5 Oeste 10 Oeste 2.4 -- -- 100
2021-02-21 15:00:00 5.3 5 Noroeste 14 Oeste 2.4 -- -- 99
2021-02-21 14:00:00 5.6 6 Oeste 21 Sur 5.2 -- -- 98
2021-02-21 13:00:00 7.3 7 Noroeste 18 Este 0.8 -- -- 97
2021-02-21 12:00:00 7.5 5 Nordeste 17 Norte 0.6 -- -- 96
2021-02-21 11:00:00 7.4 8 Norte 19 Norte 0.8 -- -- 92
2021-02-21 10:00:00 8 6 Norte 28 Norte 0.2 -- -- 91
2021-02-21 09:00:00 8.7 13 Norte 27 Noroeste 0 -- -- 81
2021-02-21 08:00:00 8.9 11 Noroeste 29 Norte 0 -- -- 77
2021-02-21 07:00:00 9.4 13 Norte 33 Nordeste 0 -- -- 72
2021-02-21 06:00:00 9.9 14 Norte 38 Norte 0 -- -- 63
2021-02-21 05:00:00 10.9 17 Norte 35 Noroeste 0 -- -- 50
2021-02-21 04:00:00 10.8 13 Noroeste 32 Este 0 -- -- 50
2021-02-21 03:00:00 10.8 9 Norte 28 Nordeste 0 -- -- 53
2021-02-21 02:00:00 10.6 8 Norte 25 Nordeste 0 -- -- 56
2021-02-21 01:00:00 10.7 8 Norte 26 Nordeste 0 -- -- 60
2021-02-21 00:00:00 10.7 9 Norte 19 Nordeste 0 -- -- 62
2021-02-20 23:00:00 10.8 10 Noroeste 28 Nordeste 0 -- -- 61
2021-02-20 22:00:00 10.8 9 Nordeste 28 Nordeste 0 -- -- 60
2021-02-20 21:00:00 10.8 11 Nordeste 32 Este 0 -- -- 55
2021-02-20 20:00:00 10.7 8 Norte 26 Nordeste 0 -- -- 51
2021-02-20 19:00:00 10.7 8 Noroeste 23 Nordeste 0 -- -- 50
2021-02-20 18:00:00 11.5 9 Noroeste 39 Nordeste 0 -- -- 47
2021-02-20 17:00:00 13.6 10 Noroeste 33 Nordeste 0 -- -- 40
2021-02-20 16:00:00 13.2 13 Norte 25 Nordeste 0 -- -- 42
2021-02-20 15:00:00 13.6 11 Norte 23 Noroeste 0 -- -- 41
2021-02-20 14:00:00 12.5 10 Norte 30 Este 0 -- -- 49
2021-02-20 13:00:00 12 8 Noroeste 36 Este 0 -- -- 51
2021-02-20 12:00:00 11.4 10 Norte 27 Nordeste 0 -- -- 55
2021-02-20 11:00:00 10 10 Este 32 Este 0 -- -- 62
2021-02-20 10:00:00 8.4 7 Noroeste 28 Este 0 -- -- 72
2021-02-20 09:00:00 8 8 Este 25 Sudeste 0 -- -- 74
2021-02-20 08:00:00 7.9 8 Sur 27 Este 0 -- -- 75
2021-02-20 07:00:00 8.2 7 Este 23 Este 0 -- -- 77
2021-02-20 06:00:00 8.4 7 Nordeste 27 Este 0 -- -- 79
2021-02-20 05:00:00 8.4 5 Nordeste 25 Este 0 -- -- 81
2021-02-20 04:00:00 8.3 6 Sur 15 Nordeste 0 -- -- 80
2021-02-20 03:00:00 8.3 4 Sur 12 Sudoeste 0 -- -- 77
2021-02-20 02:00:00 8 4 Oeste 12 Noroeste 0 -- -- 74
2021-02-20 01:00:00 8.6 5 Noroeste 17 Oeste 0 -- -- 66
2021-02-20 00:00:00 9.1 6 Sudeste 24 Sudeste 0 -- -- 71
2021-02-19 23:00:00 9.7 4 Sudoeste 15 Sudoeste 0 -- -- 68
2021-02-19 22:00:00 10.2 5 Este 13 Nordeste 0 -- -- 72
2021-02-19 21:00:00 10.2 5 Sudeste 14 Este 0 -- -- 69
2021-02-19 20:00:00 10 3 Sur 9 Sudoeste 0 -- -- 66
2021-02-19 19:00:00 12.1 3 Sur 21 Norte 0 -- -- 56
2021-02-19 18:00:00 14.1 9 Oeste 28 Oeste 0 -- -- 48
2021-02-19 17:00:00 14.5 7 Noroeste 33 Oeste 0 -- -- 46
2021-02-19 16:00:00 15.8 11 Oeste 40 Oeste 0 -- -- 36
2021-02-19 15:00:00 15.9 12 Noroeste 37 Oeste 0 -- -- 32
2021-02-19 14:00:00 15.3 12 Oeste 35 Sudeste 0 -- -- 35
2021-02-19 13:00:00 14.5 10 Oeste 30 Oeste 0 -- -- 38
2021-02-19 12:00:00 14.5 10 Noroeste 27 Norte 0 -- -- 41
2021-02-19 11:00:00 12.6 5 Nordeste 16 Nordeste 0 -- -- 52
2021-02-19 10:00:00 9.7 5 Sudeste 25 Este 0 -- -- 69
2021-02-19 09:00:00 8.3 12 Sudeste 23 Este 0 -- -- 75
2021-02-19 08:00:00 8 12 Sudeste 23 Este 0 -- -- 72
2021-02-19 07:00:00 8.5 13 Sudeste 22 Sudeste 0 -- -- 68
2021-02-19 06:00:00 8.8 8 Sudeste 18 Sudeste 0 -- -- 63
2021-02-19 05:00:00 8 4 Sudeste 14 Sudeste 0 -- -- 67
2021-02-19 04:00:00 6.9 4 Sur 9 Sudoeste 0 -- -- 74
2021-02-19 03:00:00 6.9 3 Sur 11 Oeste 0 -- -- 73
2021-02-19 02:00:00 8.9 5 Sudoeste 15 Oeste 0 -- -- 64
2021-02-19 01:00:00 10.1 8 Sudoeste 22 Sudoeste 0 -- -- 57
2021-02-19 00:00:00 10.2 5 Sur 20 Sudoeste 0 -- -- 55
2021-02-18 23:00:00 10.4 8 Sudoeste 23 Sudoeste 0 -- -- 54
2021-02-18 22:00:00 10.7 8 Sudoeste 21 Sudoeste 0 -- -- 54
2021-02-18 21:00:00 10.3 5 Sudoeste 19 Sudoeste 0 -- -- 54
2021-02-18 20:00:00 10.7 8 Sudoeste 26 Oeste 0 -- -- 51
2021-02-18 19:00:00 11.3 10 Sudoeste 34 Sudoeste 0 -- -- 47
2021-02-18 18:00:00 12.3 10 Oeste 33 Oeste 0 -- -- 47
2021-02-18 17:00:00 13.6 13 Oeste 32 Oeste 0 -- -- 44
2021-02-18 16:00:00 14.4 9 Noroeste 27 Noroeste 0 -- -- 42
2021-02-18 15:00:00 14.4 10 Noroeste 25 Noroeste 0 -- -- 46
2021-02-18 14:00:00 14.4 8 Noroeste 27 Sudoeste 0 -- -- 45
2021-02-18 13:00:00 13.8 10 Oeste 28 Sudoeste 0 -- -- 48
2021-02-18 12:00:00 13.1 9 Oeste 28 Oeste 0 -- -- 46
2021-02-18 11:00:00 11.5 10 Oeste 31 Sudoeste 0 -- -- 48
2021-02-18 10:00:00 10.8 8 Oeste 30 Oeste 0 -- -- 48
2021-02-18 09:00:00 10.3 6 Sudoeste 23 Oeste 0 -- -- 47
2021-02-18 08:00:00 8.9 8 Sur 16 Sur 0 -- -- 52
2021-02-18 07:00:00 6.9 2 Sudeste 11 Oeste 0 -- -- 64
2021-02-18 06:00:00 7.4 3 Oeste 17 Sur 0 -- -- 61
2021-02-18 05:00:00 7.4 3 Sudoeste 12 Sudoeste 0 -- -- 65
2021-02-18 04:00:00 7.1 3 Sudoeste 10 Sudoeste 0 -- -- 67
2021-02-18 03:00:00 8.4 3 Sudeste 17 Sur 0 -- -- 57
2021-02-18 02:00:00 9.8 5 Sur 18 Oeste 0 -- -- 54
2021-02-18 01:00:00 10.1 4 Sudeste 21 Sur 0 -- -- 59
2021-02-18 00:00:00 11.1 6 Sudeste 16 Oeste 0 -- -- 57
2021-02-17 23:00:00 12.2 6 Oeste 22 Sur 0 -- -- 54
2021-02-17 22:00:00 12.5 7 Sudoeste 23 Este 0 -- -- 48
2021-02-17 21:00:00 11.5 4 Sudeste 19 Oeste 0 -- -- 52
2021-02-17 20:00:00 10.2 4 Este 10 Sudeste 0 -- -- 60
2021-02-17 19:00:00 11.9 4 Sudoeste 12 Oeste 0 -- -- 64
2021-02-17 18:00:00 14.4 4 Sudoeste 20 Oeste 0 -- -- 56
2021-02-17 17:00:00 16.6 7 Noroeste 20 Sur 0 -- -- 50
2021-02-17 16:00:00 17.3 7 Oeste 25 Noroeste 0 -- -- 36
2021-02-17 15:00:00 16.7 7 Noroeste 19 Noroeste 0 -- -- 49
2021-02-17 14:00:00 15.5 9 Noroeste 17 Norte 0 -- -- 60
2021-02-17 13:00:00 14.3 7 Noroeste 13 Noroeste 0 -- -- 67
2021-02-17 12:00:00 13 5 Noroeste 9 Noroeste 0 -- -- 73
2021-02-17 11:00:00 11.6 3 Noroeste 10 Este 0 -- -- 77
2021-02-17 10:00:00 7.9 0 Calma 5 Sur 0 -- -- 92
2021-02-17 09:00:00 6.4 3 Sudeste 7 Oeste 0 -- -- 95
2021-02-17 08:00:00 6.1 3 Sur 9 Sur 0 -- -- 95
2021-02-17 07:00:00 6.2 4 Sur 6 Sur 0 -- -- 94
2021-02-17 06:00:00 7.6 4 Sudoeste 10 Oeste 0 -- -- 91
2021-02-17 05:00:00 8.4 4 Sudoeste 18 Oeste 0 -- -- 84
2021-02-17 04:00:00 9.2 6 Sudoeste 13 Sudoeste 0 -- -- 85
2021-02-17 03:00:00 8.6 3 Sudeste 11 Sudoeste 0 -- -- 84
2021-02-17 02:00:00 9.1 4 Sur 12 Este 0 -- -- 79
2021-02-17 01:00:00 9.4 5 Sudeste 12 Sudeste 0 -- -- 80
2021-02-17 00:00:00 7.9 5 Sur 9 Sudoeste 0 -- -- 85
2021-02-16 23:00:00 7.6 4 Sudoeste 9 Sudoeste 0 -- -- 85
2021-02-16 22:00:00 8.1 2 Sudoeste 10 Oeste 0 -- -- 83
2021-02-16 21:00:00 7.4 4 Sudoeste 7 Sudoeste 0 -- -- 87
2021-02-16 20:00:00 8.4 4 Sudoeste 6 Sudoeste 0 -- -- 83
2021-02-16 19:00:00 9.8 4 Sudoeste 9 Noroeste 0 -- -- 76
2021-02-16 18:00:00 12.9 5 Noroeste 13 Oeste 0 -- -- 65
2021-02-16 17:00:00 15.5 6 Noroeste 12 Noroeste 0 -- -- 55
2021-02-16 16:00:00 15.2 4 Norte 12 Noroeste 0 -- -- 54
2021-02-16 15:00:00 15.2 6 Noroeste 14 Noroeste 0 -- -- 53
2021-02-16 14:00:00 14.6 6 Noroeste 18 Noroeste 0 -- -- 53
2021-02-16 13:00:00 13.9 9 Noroeste 23 Oeste 0 -- -- 54
2021-02-16 12:00:00 13.2 7 Oeste 22 Sudoeste 0 -- -- 53
2021-02-16 11:00:00 11.9 5 Noroeste 9 Noroeste 0 -- -- 56
2021-02-16 10:00:00 8.1 0 Calma 13 Sur 0 -- -- 72
2021-02-16 09:00:00 7.6 6 Sudeste 13 Sudeste 0 -- -- 68
2021-02-16 08:00:00 6.8 3 Sudeste 10 Sur 0 -- -- 71
2021-02-16 07:00:00 9 6 Sudeste 26 Sudeste 0 -- -- 63
2021-02-16 06:00:00 9.7 10 Sudeste 30 Sudeste 0 -- -- 65
2021-02-16 05:00:00 10 18 Sudeste 34 Sudeste 0 -- -- 66
2021-02-16 04:00:00 10.2 22 Sudeste 34 Sudeste 0 -- -- 69
2021-02-16 03:00:00 10 21 Sudeste 36 Sudeste 0 -- -- 72
2021-02-16 02:00:00 10.5 20 Sudeste 36 Sudeste 0 -- -- 70
2021-02-16 01:00:00 11 22 Sudeste 35 Sur 0 -- -- 68
2021-02-16 00:00:00 11.2 17 Sudeste 31 Sudeste 0 -- -- 66
2021-02-15 23:00:00 11 18 Sudeste 35 Sudeste 0 -- -- 72
2021-02-15 22:00:00 11 9 Sur 23 Sudeste 0 -- -- 74
2021-02-15 21:00:00 11.4 11 Sur 24 Este 0 -- -- 71
2021-02-15 20:00:00 11.5 6 Sudeste 18 Sudeste 0 -- -- 68
2021-02-15 19:00:00 12 4 Este 21 Este 0 -- -- 64
2021-02-15 18:00:00 13 5 Nordeste 18 Este 0 -- -- 65
2021-02-15 17:00:00 14.6 8 Este 19 Este 0 -- -- 58
2021-02-15 16:00:00 15.1 8 Sudeste 24 Sudeste 0 -- -- 53
2021-02-15 15:00:00 14.7 8 Este 26 Este 0 -- -- 52
2021-02-15 14:00:00 14.3 8 Este 20 Sudeste 0 -- -- 58
2021-02-15 13:00:00 13.8 7 Nordeste 19 Este 0 -- -- 56
2021-02-15 12:00:00 13.6 8 Norte 15 Nordeste 0 -- -- 66
2021-02-15 11:00:00 11 3 Nordeste 8 Norte 0 -- -- 72
2021-02-15 10:00:00 6.9 2 Sur 6 Sudeste 0 -- -- 84
2021-02-15 09:00:00 6 5 Sur 8 Sudeste 0 -- -- 85
2021-02-15 08:00:00 5.6 5 Sur 10 Sudeste 0 -- -- 83
2021-02-15 07:00:00 5.9 3 Sur 7 Sudeste 0 -- -- 81
2021-02-15 06:00:00 6.1 5 Sur 9 Sur 0 -- -- 82
2021-02-15 05:00:00 6.6 4 Sudoeste 6 Oeste 0 -- -- 80
2021-02-15 04:00:00 7.1 3 Sur 14 Sur 0 -- -- 82
2021-02-15 03:00:00 9.3 9 Sudeste 18 Sudeste 0 -- -- 73
2021-02-15 02:00:00 7.8 5 Sur 14 Sudeste 0 -- -- 77
2021-02-15 01:00:00 7.4 5 Sur 8 Este 0 -- -- 76
2021-02-15 00:00:00 9.2 4 Sudeste 17 Sur 0 -- -- 63
2021-02-14 23:00:00 11.1 9 Sur 27 Sudeste 0 -- -- 60
2021-02-14 22:00:00 9.2 3 Este 11 Sudeste 0 -- -- 70
2021-02-14 21:00:00 9.1 3 Sudeste 12 Sudeste 0 -- -- 76
2021-02-14 20:00:00 9.9 6 Sur 11 Sudeste 0 -- -- 77
2021-02-14 19:00:00 11.1 6 Sudeste 18 Sudeste 0 -- -- 67
2021-02-14 18:00:00 13.1 7 Sudeste 16 Sudeste 0 -- -- 60
2021-02-14 17:00:00 15.3 6 Sudeste 12 Sudeste 0 -- -- 53
2021-02-14 16:00:00 15.8 5 Norte 13 Noroeste 0 -- -- 57
2021-02-14 15:00:00 15.5 4 Nordeste 12 Este 0 -- -- 54
2021-02-14 14:00:00 15.1 5 Este 13 Nordeste 0 -- -- 56
2021-02-14 13:00:00 14.4 4 Este 16 Sudeste 0 -- -- 59
2021-02-14 12:00:00 13.4 5 Sudeste 13 Sudeste 0 -- -- 63
2021-02-14 11:00:00 9.7 4 Sur 8 Sur 0 -- -- 76
2021-02-14 10:00:00 6.4 4 Sur 7 Sudoeste 0 -- -- 86
2021-02-14 09:00:00 5.9 3 Sur 8 Sur 0 -- -- 84
2021-02-14 08:00:00 5.6 4 Sur 8 Sur 0 -- -- 84
2021-02-14 07:00:00 5.6 5 Sur 8 Sudeste 0 -- -- 85
2021-02-14 06:00:00 6.2 4 Sur 13 Sur 0 -- -- 83
2021-02-14 05:00:00 5.8 4 Sudoeste 8 Sur 0 -- -- 84
2021-02-14 04:00:00 6.5 4 Sudeste 13 Sur 0 -- -- 81
2021-02-14 03:00:00 7.8 9 Sur 15 Sudeste 0 -- -- 74
2021-02-14 02:00:00 7.1 8 Sur 15 Sur 0 -- -- 77
2021-02-14 01:00:00 6.3 5 Sudeste 8 Sudeste 0 -- -- 87
2021-02-14 00:00:00 5.9 6 Sur 9 Sudeste 0 -- -- 87
2021-02-13 23:00:00 6.3 5 Sur 8 Sur 0 -- -- 88
2021-02-13 22:00:00 6.7 6 Sur 9 Sudeste 0 -- -- 90
2021-02-13 21:00:00 6.7 6 Sur 9 Sudeste 0 -- -- 89
2021-02-13 20:00:00 7.1 6 Sur 7 Sur 0 -- -- 86
2021-02-13 19:00:00 8.8 5 Sur 10 Oeste 0 -- -- 79
2021-02-13 18:00:00 10.8 5 Sudoeste 11 Oeste 0 -- -- 68
2021-02-13 17:00:00 14.3 5 Oeste 13 Oeste 0 -- -- 54
2021-02-13 16:00:00 14.1 6 Oeste 17 Oeste 0 -- -- 50
2021-02-13 15:00:00 13.7 6 Oeste 15 Noroeste 0 -- -- 50
2021-02-13 14:00:00 12.8 8 Oeste 23 Oeste 0 -- -- 40
2021-02-13 13:00:00 12.1 7 Oeste 13 Oeste 0 -- -- 51
2021-02-13 08:00:00 4.9 4 Sudoeste 10 Sudoeste 0 -- -- 71
2021-02-13 07:00:00 4.5 4 Sur 10 Sudoeste 0 -- -- 94
2021-02-13 06:00:00 4.3 4 Sudoeste 10 Sudoeste 0 -- -- 92
2021-02-13 05:00:00 4 4 Sudoeste 8 Sudoeste 0 -- -- 88
2021-02-13 04:00:00 4.3 4 Sudoeste 8 Sudoeste 0 -- -- 91
2021-02-13 03:00:00 4.4 4 Sudoeste 8 Sur 0 -- -- 91
2021-02-13 02:00:00 4.8 4 Sur 9 Sudoeste 0 -- -- 92
2021-02-13 01:00:00 5.7 5 Sudoeste 11 Sudoeste 0 -- -- 91
2021-02-13 00:00:00 5.8 4 Sudoeste 8 Sudoeste 0 -- -- 92
2021-02-12 23:00:00 7.4 6 Sudoeste 16 Noroeste 0 -- -- 87
2021-02-12 22:00:00 7.7 6 Sudoeste 18 Sudoeste 0 -- -- 88
2021-02-12 21:00:00 7.6 4 Sudoeste 17 Sudoeste 0 -- -- 89
2021-02-12 20:00:00 7.9 5 Sudoeste 15 Sudoeste 0 -- -- 88
2021-02-12 19:00:00 8.7 6 Sudoeste 21 Noroeste 0 -- -- 83
2021-02-12 18:00:00 9.8 8 Oeste 23 Noroeste 0 -- -- 78
2021-02-12 17:00:00 11.2 10 Oeste 32 Oeste 0 -- -- 73
2021-02-12 16:00:00 11 9 Oeste 36 Noroeste 0 -- -- 75
2021-02-12 15:00:00 10.7 12 Oeste 35 Oeste 0 -- -- 75
2021-02-12 14:00:00 9.7 11 Oeste 38 Oeste 0 -- -- 81
2021-02-12 13:00:00 9 9 Oeste 26 Oeste 0 -- -- 88
2021-02-12 12:00:00 8 11 Oeste 25 Sudoeste 0 -- -- 93
2021-02-12 11:00:00 7.2 13 Oeste 23 Oeste 0 -- -- 99
2021-02-12 10:00:00 6.8 11 Oeste 29 Sudoeste 0 -- -- 100
2021-02-12 09:00:00 6.7 10 Oeste 31 Oeste 0 -- -- 98
2021-02-12 08:00:00 6.9 11 Oeste 36 Oeste 0 -- -- 98
2021-02-12 07:00:00 7.3 11 Oeste 43 Oeste 0.2 -- -- 97
2021-02-12 06:00:00 8.2 12 Oeste 35 Oeste 0.6 -- -- 99
2021-02-12 05:00:00 9.6 13 Sudoeste 43 Oeste 2.6 -- -- 99
2021-02-12 04:00:00 9.6 15 Oeste 54 Oeste 4 -- -- 99
2021-02-12 03:00:00 9.5 13 Oeste 37 Sudoeste 0.6 -- -- 95
2021-02-12 02:00:00 9.8 7 Sudeste 27 Oeste 0.2 -- -- 94
2021-02-12 01:00:00 10 11 Sudoeste 28 Sudoeste 0 -- -- 96
2021-02-12 00:00:00 10.1 5 Noroeste 22 Oeste 0 -- -- 94
2021-02-11 23:00:00 10.3 8 Sudeste 24 Sudeste 0 -- -- 93
2021-02-11 22:00:00 10.3 4 Noroeste 15 Sur 0 -- -- 94
2021-02-11 21:00:00 10.3 6 Sur 23 Sudoeste 0.2 -- -- 93
2021-02-11 20:00:00 10.3 6 Sudoeste 21 Sudoeste 0 -- -- 94
2021-02-11 19:00:00 10.3 4 Oeste 17 Oeste 0.2 -- -- 98
2021-02-11 18:00:00 10.5 4 Oeste 28 Oeste 0.2 -- -- 96
2021-02-11 17:00:00 11 5 Noroeste 16 Noroeste 0 -- -- 94
2021-02-11 16:00:00 11.5 5 Oeste 22 Sudoeste 0 -- -- 92
2021-02-11 15:00:00 11.5 8 Noroeste 20 Sudoeste 0 -- -- 95
2021-02-11 14:00:00 11.1 7 Noroeste 18 Oeste 0 -- -- 99
2021-02-11 13:00:00 10.5 6 Noroeste 15 Oeste 0.2 -- -- 100
2021-02-11 12:00:00 10.2 6 Oeste 21 Noroeste 0.2 -- -- 98
2021-02-11 11:00:00 10.5 8 Sudoeste 17 Oeste 0 -- -- 97
2021-02-11 10:00:00 10.3 3 Este 15 Oeste 0 -- -- 97
2021-02-11 09:00:00 10.4 8 Sudoeste 18 Sur 0 -- -- 94
2021-02-11 08:00:00 9.8 5 Oeste 16 Sudoeste 0 -- -- 98
2021-02-11 07:00:00 9.7 9 Sudoeste 19 Sudoeste 0 -- -- 99
2021-02-11 06:00:00 9.7 8 Sudoeste 21 Oeste 0 -- -- 99
2021-02-11 05:00:00 9.7 6 Oeste 28 Sudoeste 0 -- -- 100
2021-02-11 04:00:00 9.9 12 Sudoeste 25 Sudoeste 0.2 -- -- 99
2021-02-11 03:00:00 10 6 Oeste 26 Sudoeste 0.4 -- -- 99
2021-02-11 02:00:00 9.9 8 Oeste 22 Noroeste 0 -- -- 100
2021-02-11 01:00:00 9.7 8 Oeste 26 Oeste 0 -- -- 98
2021-02-11 00:00:00 9.1 10 Sudoeste 29 Oeste 0 -- -- 96
2021-02-10 23:00:00 9.2 9 Sudoeste 33 Oeste 0 -- -- 84
2021-02-10 22:00:00 8.8 10 Sudoeste 23 Sur 0 -- -- 79
2021-02-10 21:00:00 8.1 9 Sudoeste 28 Oeste 0 -- -- 80
2021-02-10 20:00:00 7.9 4 Sur 21 Sudoeste 0 -- -- 82
2021-02-10 19:00:00 8.4 12 Sudoeste 24 Sudoeste 0 -- -- 78
2021-02-10 18:00:00 9 9 Sudoeste 23 Oeste 0 -- -- 78
2021-02-10 17:00:00 10.3 8 Oeste 29 Sudoeste 0 -- -- 71
2021-02-10 16:00:00 10.5 13 Oeste 27 Oeste 0 -- -- 72
2021-02-10 15:00:00 10.3 10 Oeste 26 Oeste 0 -- -- 74
2021-02-10 14:00:00 9.9 9 Oeste 27 Sudoeste 0 -- -- 78
2021-02-10 13:00:00 9.1 12 Oeste 39 Oeste 0 -- -- 80
2021-02-10 12:00:00 7.7 14 Oeste 32 Oeste 0 -- -- 87
2021-02-10 11:00:00 7.1 9 Oeste 31 Oeste 0 -- -- 91
2021-02-10 10:00:00 6.2 12 Oeste 32 Oeste 0 -- -- 95
2021-02-10 09:00:00 5.9 12 Oeste 41 Oeste 0 -- -- 93
2021-02-10 08:00:00 6.2 14 Oeste 48 Sudoeste 0 -- -- 94
2021-02-10 07:00:00 6.4 19 Oeste 53 Oeste 0 -- -- 95
2021-02-10 06:00:00 6.3 24 Oeste 63 Oeste 0.2 -- -- 97
2021-02-10 05:00:00 6.4 23 Sudoeste 91 Sudoeste 0.2 -- -- 96
2021-02-10 04:00:00 6.6 24 Oeste 69 Sudoeste 0 -- -- 91
2021-02-10 03:00:00 6.6 28 Sudoeste 73 Sudoeste 0 -- -- 92
2021-02-10 02:00:00 6.2 26 Oeste 73 Sudoeste 0.4 -- -- 95
2021-02-10 01:00:00 6.4 23 Sudoeste 58 Oeste 6.4 -- -- 96
2021-02-10 00:00:00 6.1 23 Oeste 51 Oeste 4.8 -- -- 96
2021-02-09 23:00:00 6.3 26 Oeste 57 Sudoeste 0.2 -- -- 90
2021-02-09 22:00:00 6.5 19 Oeste 51 Oeste 0.4 -- -- 92
2021-02-09 21:00:00 7 24 Oeste 67 Sudoeste 0 -- -- 88
2021-02-09 20:00:00 7.1 23 Oeste 68 Oeste 0 -- -- 89
2021-02-09 19:00:00 7.1 22 Oeste 66 Sur 0 -- -- 86
2021-02-09 18:00:00 7.1 23 Oeste 73 Oeste 0 -- -- 93
2021-02-09 17:00:00 6.7 18 Sudoeste 57 Oeste 0.2 -- -- 92
2021-02-09 16:00:00 6.6 24 Sudoeste 57 Sudoeste 4 -- -- 98
2021-02-09 15:00:00 6.3 18 Oeste 57 Oeste 7.2 -- -- 98
2021-02-09 14:00:00 7.1 19 Oeste 83 Noroeste 10.6 -- -- 98
2021-02-09 13:00:00 7.7 23 Sudoeste 66 Oeste 6.8 -- -- 95
2021-02-09 12:00:00 7.2 26 Sudoeste 85 Sur 6.4 -- -- 92
2021-02-09 11:00:00 7.1 26 Sudoeste 57 Sudoeste 2.6 -- -- 94
2021-02-09 10:00:00 6.8 19 Sudoeste 67 Sur 0.6 -- -- 94
2021-02-09 09:00:00 6.4 15 Noroeste 56 Sur 0.4 -- -- 95
2021-02-09 08:00:00 6.5 17 Sudoeste 53 Oeste 0 -- -- 93
2021-02-09 07:00:00 6.5 19 Oeste 68 Sudoeste 0 -- -- 94
2021-02-09 06:00:00 6.2 17 Oeste 55 Oeste 0 -- -- 93
2021-02-09 05:00:00 5.9 16 Noroeste 62 Oeste 0.4 -- -- 97
2021-02-09 04:00:00 6.2 15 Sudoeste 50 Oeste 0.2 -- -- 97
2021-02-09 03:00:00 5.8 18 Oeste 48 Oeste 0 -- -- 96
2021-02-09 02:00:00 5.6 15 Oeste 41 Sudoeste 0 -- -- 89
2021-02-09 01:00:00 5.5 11 Sudoeste 36 Sudoeste 0 -- -- 91
2021-02-09 00:00:00 5.6 10 Oeste 42 Sudoeste 0 -- -- 93
2021-02-08 23:00:00 5.1 11 Oeste 44 Sudoeste 0 -- -- 90
2021-02-08 22:00:00 4.9 17 Oeste 58 Sudoeste 0 -- -- 86
2021-02-08 21:00:00 5.3 11 Sudoeste 43 Oeste 0 -- -- 90
2021-02-08 20:00:00 5.6 14 Oeste 51 Sudoeste 0 -- -- 90
2021-02-08 19:00:00 5.9 16 Oeste 42 Oeste 0 -- -- 88
2021-02-08 18:00:00 6.4 16 Oeste 46 Oeste 0 -- -- 86
2021-02-08 17:00:00 6.3 14 Oeste 42 Oeste 0 -- -- 88
2021-02-08 16:00:00 6.9 16 Oeste 45 Oeste 0 -- -- 86
2021-02-08 15:00:00 6.3 18 Oeste 40 Noroeste 0.4 -- -- 92
2021-02-08 14:00:00 6.2 18 Oeste 49 Oeste 0 -- -- 88
2021-02-08 13:00:00 5.3 17 Oeste 42 Oeste 0.8 -- -- 90
2021-02-08 12:00:00 5.3 16 Oeste 53 Oeste 1.6 -- -- 98
2021-02-08 11:00:00 4.9 15 Oeste 45 Sudoeste 2.8 -- -- 100
2021-02-08 10:00:00 4.9 11 Sudoeste 40 Oeste 1 -- -- 100
2021-02-08 09:00:00 4.9 15 Oeste 43 Oeste 0 -- -- 100
2021-02-08 08:00:00 4.7 14 Oeste 50 Oeste 0 -- -- 98
2021-02-08 07:00:00 4.9 14 Oeste 45 Oeste 0 -- -- 98
2021-02-08 06:00:00 5.5 17 Oeste 45 Noroeste 0.6 -- -- 99
2021-02-08 05:00:00 6.7 14 Oeste 61 Sudoeste 10.2 -- -- 99
2021-02-08 04:00:00 7.3 23 Sudoeste 74 Oeste 12 -- -- 93
2021-02-08 03:00:00 7.4 18 Sudoeste 57 Sudoeste 3 -- -- 95
2021-02-08 02:00:00 7.1 24 Sudoeste 68 Sur 0.2 -- -- 94
2021-02-08 01:00:00 6.7 20 Sur 56 Sudoeste 1 -- -- 95
2021-02-08 00:00:00 6 9 Oeste 45 Oeste 1 -- -- 98
2021-02-07 23:00:00 5.2 12 Sudoeste 38 Sudoeste 0.2 -- -- 100
2021-02-07 22:00:00 4.9 11 Sudoeste 39 Sudoeste 0.2 -- -- 100
2021-02-07 21:00:00 4.5 10 Oeste 36 Noroeste 0 -- -- 100
2021-02-07 20:00:00 4.2 10 Oeste 37 Sudoeste 0 -- -- 99
2021-02-07 19:00:00 3.9 11 Sudoeste 40 Sudoeste 0 -- -- 95
2021-02-07 18:00:00 3.5 10 Sudoeste 35 Sudoeste 0.4 -- -- 87
2021-02-07 17:00:00 5.3 12 Oeste 25 Sudoeste 0 -- -- 87
2021-02-07 16:00:00 6.3 12 Sudoeste 28 Sudoeste 0 -- -- 83
2021-02-07 15:00:00 6.7 11 Sudoeste 30 Sudoeste 0 -- -- 79
2021-02-07 14:00:00 7.3 13 Oeste 28 Sudoeste 0 -- -- 76
2021-02-07 13:00:00 7 8 Oeste 20 Sur 0 -- -- 78
2021-02-07 12:00:00 6.2 10 Oeste 23 Oeste 0 -- -- 82
2021-02-07 11:00:00 6.1 6 Sudoeste 13 Sudoeste 0 -- -- 87
2021-02-07 10:00:00 4.4 5 Sudoeste 11 Sudoeste 0 -- -- 93
2021-02-07 09:00:00 4.2 3 Sudoeste 6 Sudoeste 0 -- -- 100
2021-02-07 08:00:00 4.2 4 Oeste 6 Oeste 0 -- -- 100
2021-02-07 07:00:00 3.9 2 Sudeste 4 Sur 0 -- -- 100
2021-02-07 06:00:00 3.4 3 Sur 11 Sur 0 -- -- 100
2021-02-07 05:00:00 4 3 Sudoeste 8 Norte 0 -- -- 99
2021-02-07 04:00:00 3.8 2 Sur 7 Sur 0 -- -- 100
2021-02-07 03:00:00 4.2 3 Sur 4 Sur 0 -- -- 99
2021-02-07 02:00:00 5.4 3 Sudeste 5 Sudoeste 0 -- -- 100
2021-02-07 01:00:00 5.8 2 Nordeste 7 Este 0 -- -- 100
2021-02-07 00:00:00 5.9 5 Sudoeste 8 Sudoeste 0 -- -- 100
2021-02-06 23:00:00 5.2 0 Calma 4 Sur 0 -- -- 100
2021-02-06 22:00:00 5.4 2 Sur 6 Este 0 -- -- 99
2021-02-06 21:00:00 6.1 3 Sudoeste 6 Sudoeste 0 -- -- 99
2021-02-06 20:00:00 6.2 0 Calma 5 Noroeste 0.2 -- -- 100
2021-02-06 19:00:00 6.3 4 Oeste 10 Oeste 0.2 -- -- 100
2021-02-06 18:00:00 6.8 3 Oeste 11 Noroeste 0.8 -- -- 99
2021-02-06 17:00:00 7.4 4 Oeste 15 Noroeste 0 -- -- 95
2021-02-06 16:00:00 7.6 8 Sur 16 Sudoeste 0.2 -- -- 90
2021-02-06 15:00:00 7.4 4 Norte 13 Sudoeste 0.6 -- -- 95
2021-02-06 14:00:00 7.6 3 Norte 13 Sudoeste 0 -- -- 96
2021-02-06 13:00:00 7.2 3 Este 12 Sudoeste 0 -- -- 94
2021-02-06 12:00:00 7.3 4 Norte 13 Sudeste 0 -- -- 93
2021-02-06 11:00:00 7 6 Oeste 14 Oeste 0 -- -- 94
2021-02-06 10:00:00 6.3 3 Norte 19 Sudeste 0 -- -- 95
2021-02-06 09:00:00 5.9 5 Oeste 17 Sudoeste 0 -- -- 96
2021-02-06 08:00:00 6 6 Oeste 15 Oeste 0.2 -- -- 96
2021-02-06 07:00:00 6.2 5 Norte 17 Noroeste 1 -- -- 100
2021-02-06 06:00:00 6.1 3 Noroeste 21 Nordeste 0.4 -- -- 100
2021-02-06 05:00:00 6.2 8 Noroeste 14 Noroeste 0.8 -- -- 100
2021-02-06 04:00:00 6.4 9 Norte 16 Nordeste 0.4 -- -- 100
2021-02-06 03:00:00 6.4 6 Este 24 Noroeste 2.4 -- -- 97
2021-02-06 02:00:00 6.6 5 Noroeste 19 Nordeste 2.2 -- -- 100
2021-02-06 01:00:00 6.7 6 Norte 17 Norte 1.2 -- -- 100
2021-02-06 00:00:00 6.8 6 Norte 18 Norte 1 -- -- 99
2021-02-05 23:00:00 6.6 6 Noroeste 13 Noroeste 2.2 -- -- 100
2021-02-05 22:00:00 6.7 6 Noroeste 16 Noroeste 1.4 -- -- 98
2021-02-05 21:00:00 6.9 8 Noroeste 17 Oeste 0.6 -- -- 95
2021-02-05 20:00:00 6.9 3 Norte 23 Oeste 4.4 -- -- 96
2021-02-05 19:00:00 7.6 8 Sudoeste 24 Sudoeste 2.6 -- -- 97
2021-02-05 18:00:00 9.1 4 Sudeste 15 Sudeste 0.4 -- -- 91
2021-02-05 17:00:00 10 6 Este 17 Este 0 -- -- 85
2021-02-05 16:00:00 8.7 6 Noroeste 18 Oeste 0 -- -- 92
2021-02-05 15:00:00 10.1 6 Noroeste 18 Oeste 0 -- -- 81
2021-02-05 14:00:00 11.4 10 Noroeste 17 Noroeste 0 -- -- 73
2021-02-05 13:00:00 10.8 6 Noroeste 14 Noroeste 0 -- -- 80
2021-02-05 12:00:00 10.7 5 Oeste 15 Norte 0 -- -- 79
2021-02-05 11:00:00 10.3 5 Noroeste 13 Noroeste 0 -- -- 80
2021-02-05 10:00:00 8.4 3 Norte 14 Noroeste 0 -- -- 88
2021-02-05 09:00:00 7.8 7 Oeste 21 Noroeste 0 -- -- 97
2021-02-05 08:00:00 7.7 4 Sur 16 Sudeste 0 -- -- 95
2021-02-05 07:00:00 8.4 6 Sudeste 15 Este 0 -- -- 91
2021-02-05 06:00:00 7.9 4 Sudeste 14 Oeste 0.2 -- -- 94
2021-02-05 05:00:00 8.5 4 Sur 10 Sudeste 0 -- -- 93
2021-02-05 04:00:00 9.7 6 Este 19 Norte 0 -- -- 80
2021-02-05 03:00:00 9.5 8 Sudeste 18 Sudeste 0.6 -- -- 87
2021-02-05 02:00:00 8.9 6 Oeste 15 Sudeste 0 -- -- 92
2021-02-05 01:00:00 9.4 10 Sudeste 18 Sudeste 0 -- -- 87
2021-02-05 00:00:00 8.8 5 Sudeste 15 Sudeste 0 -- -- 91
2021-02-04 23:00:00 8.9 11 Sudeste 21 Este 0 -- -- 91
2021-02-04 22:00:00 8.2 7 Sudeste 13 Sudeste 0 -- -- 96
2021-02-04 21:00:00 8.3 6 Sudeste 17 Sudeste 0 -- -- 98
2021-02-04 20:00:00 8.3 3 Nordeste 8 Este 0 -- -- 100
2021-02-04 19:00:00 8.4 3 Sudoeste 14 Nordeste 0.8 -- -- 100
2021-02-04 18:00:00 8.4 5 Noroeste 12 Norte 0.6 -- -- 100
2021-02-04 17:00:00 8.5 5 Noroeste 17 Nordeste 0 -- -- 98
2021-02-04 16:00:00 8.9 8 Noroeste 22 Norte 0 -- -- 96
2021-02-04 15:00:00 8.5 7 Nordeste 19 Sudoeste 0 -- -- 96
2021-02-04 14:00:00 8.1 6 Sur 15 Sudeste 0 -- -- 97
2021-02-04 13:00:00 7.6 6 Noroeste 20 Nordeste 0 -- -- 98
2021-02-04 12:00:00 8.3 6 Nordeste 19 Este 0.8 -- -- 98
2021-02-04 11:00:00 8.4 5 Nordeste 14 Sudeste 1.2 -- -- 99
2021-02-04 10:00:00 8 5 Este 19 Este 0.6 -- -- 99
2021-02-04 09:00:00 7.8 8 Este 22 Este 0.6 -- -- 100
2021-02-04 08:00:00 7.5 4 Nordeste 12 Nordeste 0.2 -- -- 100
2021-02-04 07:00:00 7 0 Calma 0 Calma 0.2 -- -- 100
2021-02-04 06:00:00 6.9 0 Calma 6 Nordeste 0 -- -- 100
2021-02-04 05:00:00 6.9 0 Calma 5 Noroeste 0.2 -- -- 100
2021-02-04 04:00:00 6.9 3 Noroeste 7 Sur 0 -- -- 100
2021-02-04 03:00:00 6.9 3 Este 9 Noroeste 0.2 -- -- 100
2021-02-04 02:00:00 7 2 Noroeste 9 Sudoeste 0 -- -- 99
2021-02-04 01:00:00 7.2 3 Sudoeste 19 Oeste 0.2 -- -- 97
2021-02-04 00:00:00 7.7 3 Noroeste 22 Oeste 0.2 -- -- 100
2021-02-03 23:00:00 8.2 5 Noroeste 15 Noroeste 0.8 -- -- 100
2021-02-03 22:00:00 8.4 4 Noroeste 23 Noroeste 2.6 -- -- 100
2021-02-03 21:00:00 9.8 13 Sudoeste 41 Oeste 0.2 -- -- 95
2021-02-03 20:00:00 9.7 7 Norte 24 Nordeste 0 -- -- 98
2021-02-03 19:00:00 9.9 6 Norte 21 Este 0 -- -- 96
2021-02-03 18:00:00 10.5 6 Oeste 27 Noroeste 0 -- -- 92
2021-02-03 17:00:00 11.5 6 Noroeste 36 Oeste 0 -- -- 87
2021-02-03 16:00:00 10.5 10 Sudoeste 33 Sur 0.2 -- -- 93
2021-02-03 15:00:00 10.5 10 Sudoeste 32 Sudoeste 0 -- -- 93
2021-02-03 14:00:00 10.4 12 Oeste 33 Sudoeste 0 -- -- 94
2021-02-03 13:00:00 9.6 9 Noroeste 32 Sudoeste 0 -- -- 97
2021-02-03 12:00:00 9.8 8 Norte 35 Sudoeste 0.4 -- -- 96
2021-02-03 11:00:00 8.8 9 Noroeste 24 Oeste 0.4 -- -- 96
2021-02-03 10:00:00 8.2 5 Nordeste 20 Este 0 -- -- 97
2021-02-03 09:00:00 7.9 8 Nordeste 33 Este 0.2 -- -- 99
2021-02-03 08:00:00 7.8 8 Norte 27 Sudoeste 0 -- -- 96
2021-02-03 07:00:00 7.5 7 Nordeste 23 Oeste 0 -- -- 93
2021-02-03 06:00:00 7.8 6 Norte 16 Sudoeste 0 -- -- 92
2021-02-03 05:00:00 7.8 5 Noroeste 15 Este 0 -- -- 92
2021-02-03 04:00:00 8.1 6 Sudoeste 23 Oeste 0 -- -- 89
2021-02-03 03:00:00 8.1 5 Sudoeste 24 Sudeste 0 -- -- 87
2021-02-03 02:00:00 8.1 6 Noroeste 46 Sudoeste 0 -- -- 86
2021-02-03 01:00:00 8.2 8 Sudoeste 31 Sur 0 -- -- 82
2021-02-03 00:00:00 8.1 9 Sudoeste 32 Oeste 0 -- -- 85
2021-02-02 23:00:00 8.3 8 Oeste 31 Oeste 0 -- -- 86
2021-02-02 22:00:00 8.4 8 Oeste 23 Sur 0 -- -- 85
2021-02-02 21:00:00 8.5 8 Sudoeste 29 Oeste 0 -- -- 85
2021-02-02 20:00:00 8.4 9 Sudoeste 23 Noroeste 0 -- -- 85
2021-02-02 19:00:00 8.3 8 Oeste 31 Oeste 0 -- -- 85
2021-02-02 18:00:00 8.9 13 Sudoeste 32 Sur 0 -- -- 84
2021-02-02 17:00:00 9.6 8 Oeste 32 Oeste 0 -- -- 85
2021-02-02 16:00:00 10.4 6 Oeste 27 Sudoeste 0 -- -- 85
2021-02-02 15:00:00 10.8 10 Oeste 24 Oeste 0 -- -- 84
2021-02-02 14:00:00 10.5 8 Oeste 25 Sudoeste 0 -- -- 87
2021-02-02 13:00:00 10.4 6 Noroeste 28 Noroeste 0 -- -- 88
2021-02-02 12:00:00 9.8 7 Noroeste 24 Oeste 0 -- -- 96
2021-02-02 11:00:00 9.4 8 Oeste 22 Oeste 0 -- -- 92
2021-02-02 10:00:00 9.1 10 Oeste 32 Oeste 0 -- -- 94
2021-02-02 09:00:00 8.9 9 Oeste 30 Sudoeste 0.2 -- -- 94
2021-02-02 08:00:00 8.7 6 Oeste 18 Sudoeste 0 -- -- 100
2021-02-02 07:00:00 8.9 8 Oeste 20 Oeste 0 -- -- 100
2021-02-02 06:00:00 8.9 8 Oeste 21 Sudoeste 0 -- -- 100
2021-02-02 05:00:00 9 8 Sudoeste 26 Oeste 0.2 -- -- 100
2021-02-02 04:00:00 8.5 9 Oeste 25 Sudoeste 0 -- -- 100
2021-02-02 03:00:00 8.3 7 Oeste 21 Oeste 0 -- -- 99
2021-02-02 02:00:00 8 4 Oeste 24 Sudoeste 0 -- -- 98
2021-02-02 01:00:00 7.8 9 Sudoeste 16 Oeste 0 -- -- 97
2021-02-02 00:00:00 6.4 4 Sur 12 Sur 0 -- -- 100
2021-02-01 23:00:00 5.8 3 Sur 10 Sudoeste 0 -- -- 98
2021-02-01 22:00:00 6.3 5 Sudoeste 13 Sudoeste 0 -- -- 96
2021-02-01 21:00:00 7.4 6 Sudoeste 18 Oeste 0 -- -- 92
2021-02-01 20:00:00 8.1 9 Sudoeste 31 Oeste 0 -- -- 91
2021-02-01 19:00:00 8.5 8 Sudoeste 26 Sudoeste 0 -- -- 89
2021-02-01 18:00:00 9.3 9 Sudoeste 33 Oeste 0 -- -- 87
2021-02-01 17:00:00 9.6 14 Oeste 34 Noroeste 0 -- -- 87
2021-02-01 16:00:00 9.4 14 Oeste 41 Sudoeste 0 -- -- 90
2021-02-01 15:00:00 9 15 Oeste 37 Oeste 0 -- -- 90
2021-02-01 14:00:00 8.4 15 Oeste 37 Sudoeste 0 -- -- 96
2021-02-01 13:00:00 8.6 14 Sudoeste 36 Oeste 0 -- -- 95
2021-02-01 12:00:00 8.3 10 Oeste 24 Sudoeste 0 -- -- 97
2021-02-01 11:00:00 7.7 12 Sudoeste 32 Sur 0 -- -- 98
2021-02-01 10:00:00 7.1 12 Sudoeste 27 Sudoeste 0 -- -- 99
2021-02-01 09:00:00 6.6 13 Sudoeste 20 Oeste 0 -- -- 100
2021-02-01 08:00:00 6.7 12 Oeste 24 Oeste 0 -- -- 98
2021-02-01 07:00:00 7.1 13 Sudoeste 27 Oeste 0 -- -- 98
2021-02-01 06:00:00 7.5 14 Sudoeste 27 Sur 0 -- -- 96
2021-02-01 05:00:00 7.5 13 Sudoeste 28 Oeste 0 -- -- 97
2021-02-01 04:00:00 7.8 10 Oeste 21 Oeste 0 -- -- 98
2021-02-01 03:00:00 7.9 8 Sudoeste 24 Sudoeste 0 -- -- 99
2021-02-01 02:00:00 8.3 10 Oeste 36 Oeste 0 -- -- 100
2021-02-01 01:00:00 8.9 12 Oeste 35 Sudoeste 0 -- -- 100
2021-02-01 00:00:00 9.5 14 Oeste 33 Sudoeste 0 -- -- 99